Time;durP1;ratioP1;P1;durP2;ratioP2;P2;SDS_P1;SDS_P2;PMS_P1;PMS_P2;Temp;Humidity;BMP_temperature;BMP_pressure;BME280_temperature;BME280_humidity;BME280_pressure;Samples;Min_cycle;Max_cycle;Signal;HPM_P1;HPM_P2
2022/08/08 00:01:55;;;;;;;5.45;4.80;;;18.70;99.90;;;;;;5082001;28;20378;-64
2022/08/08 00:04:33;;;;;;;6.03;4.72;;;18.70;99.90;;;;;;5082878;28;20476;-64
2022/08/08 00:07:20;;;;;;;6.80;5.13;;;18.60;99.90;;;;;;5084682;28;20441;-64
2022/08/08 00:10:19;;;;;;;5.00;4.50;;;18.60;99.90;;;;;;5083332;28;20405;-64
2022/08/08 00:13:06;;;;;;;6.57;5.00;;;18.50;99.90;;;;;;5082679;28;20386;-64
2022/08/08 00:15:37;;;;;;;5.60;5.03;;;18.40;99.90;;;;;;5083621;28;20575;-65
2022/08/08 00:18:23;;;;;;;7.45;4.93;;;18.40;99.90;;;;;;5087093;28;20602;-65
2022/08/08 00:21:00;;;;;;;5.45;4.72;;;18.40;99.90;;;;;;5088247;28;20672;-65
2022/08/08 00:24:05;;;;;;;5.80;4.55;;;18.40;99.90;;;;;;5087901;28;20401;-65
2022/08/08 00:26:38;;;;;;;4.50;4.10;;;18.40;99.90;;;;;;5031119;28;20702;-65
2022/08/08 00:29:13;;;;;;;6.60;4.97;;;18.30;99.90;;;;;;5082557;28;20582;-65
2022/08/08 00:31:45;;;;;;;5.63;4.53;;;18.30;99.90;;;;;;5092270;28;20377;-66
2022/08/08 00:37:07;;;;;;;5.82;4.68;;;18.20;99.90;;;;;;5092285;28;20478;-67
2022/08/08 00:39:45;;;;;;;6.13;5.00;;;18.20;99.90;;;;;;5091945;28;20385;-65
2022/08/08 00:42:30;;;;;;;6.88;4.53;;;18.10;99.90;;;;;;5091592;28;20770;-65
2022/08/08 00:45:35;;;;;;;5.03;4.32;;;18.10;99.90;;;;;;5092515;28;20490;-65
2022/08/08 00:48:08;;;;;;;5.20;4.70;;;18.00;99.90;;;;;;5092302;28;20389;-66
2022/08/08 00:50:58;;;;;;;6.68;4.40;;;18.10;99.90;;;;;;5092678;28;20389;-65
2022/08/08 00:53:54;;;;;;;4.65;4.25;;;18.00;99.90;;;;;;5091668;28;20421;-65
2022/08/08 00:56:44;;;;;;;6.90;4.53;;;18.00;99.90;;;;;;5093082;28;20681;-65
2022/08/08 00:59:34;;;;;;;5.55;4.57;;;17.90;99.90;;;;;;5091347;28;20888;-65
2022/08/08 01:02:14;;;;;;;5.25;4.50;;;17.80;99.90;;;;;;5091086;28;20402;-64
2022/08/08 01:04:43;;;;;;;5.10;4.47;;;17.80;99.90;;;;;;5089830;28;20646;-65
2022/08/08 01:07:40;;;;;;;5.90;4.75;;;17.80;99.90;;;;;;5090345;28;20821;-64
2022/08/08 01:10:27;;;;;;;5.00;4.30;;;17.80;99.90;;;;;;5091806;28;20393;-65
2022/08/08 01:13:11;;;;;;;6.82;4.70;;;17.70;99.90;;;;;;5092417;28;20373;-65
2022/08/08 01:16:13;;;;;;;4.93;4.38;;;17.70;99.90;;;;;;5091134;28;20672;-65
2022/08/08 01:19:00;;;;;;;5.88;4.38;;;17.70;99.90;;;;;;5091690;28;20535;-65
2022/08/08 01:21:43;;;;;;;5.78;4.32;;;17.70;99.90;;;;;;5090331;28;20386;-65
2022/08/08 01:24:48;;;;;;;5.63;4.40;;;17.60;99.90;;;;;;5089731;28;20825;-65
2022/08/08 01:27:38;;;;;;;4.93;4.28;;;17.60;99.90;;;;;;5089833;28;20405;-65
2022/08/08 01:30:24;;;;;;;7.80;4.70;;;17.50;99.90;;;;;;5089775;28;21013;-65
2022/08/08 01:33:28;;;;;;;6.28;4.88;;;17.40;99.90;;;;;;5090369;28;20374;-65
2022/08/08 01:36:35;;;;;;;5.32;4.63;;;17.30;99.90;;;;;;5066823;28;20647;-65
2022/08/08 01:39:12;;;;;;;7.22;4.50;;;17.30;99.90;;;;;;5092141;28;20459;-65
2022/08/08 01:41:50;;;;;;;7.63;4.78;;;17.30;99.90;;;;;;5092192;28;20394;-65
2022/08/08 01:44:44;;;;;;;6.13;4.82;;;17.20;99.90;;;;;;5091564;28;20454;-65
2022/08/08 01:47:54;;;;;;;8.32;5.10;;;17.20;99.90;;;;;;5090818;28;20480;-65
2022/08/08 01:50:49;;;;;;;4.90;4.38;;;17.20;99.90;;;;;;5089751;28;20386;-65
2022/08/08 01:53:47;;;;;;;6.40;4.53;;;17.20;99.90;;;;;;5090806;28;20400;-65
2022/08/08 01:56:28;;;;;;;5.03;4.53;;;17.20;99.90;;;;;;5089774;28;20805;-65
2022/08/08 01:59:14;;;;;;;6.50;4.80;;;17.10;99.90;;;;;;5089957;28;20394;-65
2022/08/08 02:02:01;;;;;;;5.60;4.63;;;17.10;99.90;;;;;;5088237;28;20765;-65
2022/08/08 02:04:52;;;;;;;5.70;4.50;;;17.00;99.90;;;;;;5086359;28;20370;-65
2022/08/08 02:07:32;;;;;;;5.57;4.65;;;17.00;99.90;;;;;;5087147;28;21001;-65
2022/08/08 02:10:36;;;;;;;6.80;4.65;;;17.00;99.90;;;;;;5089744;28;20484;-65
2022/08/08 02:13:21;;;;;;;5.03;4.43;;;17.10;99.90;;;;;;5087333;28;20611;-65
2022/08/08 02:15:55;;;;;;;5.13;4.50;;;17.00;99.90;;;;;;5089311;28;20390;-65
2022/08/08 02:18:42;;;;;;;5.93;4.60;;;17.00;99.90;;;;;;5089633;28;20386;-65
2022/08/08 02:24:51;;;;;;;5.20;4.70;;;16.90;99.90;;;;;;5088913;28;20828;-65
2022/08/08 02:27:23;;;;;;;5.13;4.63;;;16.80;99.90;;;;;;5065372;28;20429;-65
2022/08/08 02:30:19;;;;;;;5.65;4.65;;;16.80;99.90;;;;;;5094221;28;20415;-67
2022/08/08 02:33:17;;;;;;;5.40;4.50;;;16.70;99.90;;;;;;5086601;28;20766;-65
2022/08/08 02:35:52;;;;;;;5.65;4.57;;;16.70;99.90;;;;;;5096579;28;20462;-65
2022/08/08 02:38:51;;;;;;;5.90;4.77;;;16.60;99.90;;;;;;5097633;28;20554;-65
2022/08/08 02:41:35;;;;;;;5.95;4.78;;;16.60;99.90;;;;;;5096815;28;20427;-65
2022/08/08 02:44:32;;;;;;;6.72;5.28;;;16.50;99.90;;;;;;5096744;28;20432;-65
2022/08/08 02:47:35;;;;;;;6.63;5.15;;;16.50;99.90;;;;;;5096152;28;20393;-65
2022/08/08 02:50:36;;;;;;;6.85;5.15;;;16.50;99.90;;;;;;5094156;28;20378;-65
2022/08/08 02:53:33;;;;;;;5.30;4.80;;;16.50;99.90;;;;;;5095144;28;20394;-65
2022/08/08 02:56:25;;;;;;;5.55;4.53;;;16.40;99.90;;;;;;5092955;28;20405;-65
2022/08/08 02:59:28;;;;;;;7.03;4.70;;;16.40;99.90;;;;;;5090526;28;20448;-65
2022/08/08 03:02:25;;;;;;;5.50;4.90;;;16.30;99.90;;;;;;5089405;28;20524;-65
2022/08/08 03:05:17;;;;;;;5.10;4.60;;;16.40;99.90;;;;;;5090478;28;20856;-65
2022/08/08 03:08:02;;;;;;;5.40;4.88;;;16.40;99.90;;;;;;5091584;28;20394;-65
2022/08/08 03:10:30;;;;;;;5.13;4.63;;;16.40;99.90;;;;;;5090107;28;20402;-65
2022/08/08 03:13:14;;;;;;;5.40;4.90;;;16.40;99.90;;;;;;5090385;28;20454;-65
2022/08/08 03:15:59;;;;;;;6.28;5.07;;;16.40;99.90;;;;;;5089203;28;20516;-65
2022/08/08 03:18:50;;;;;;;5.45;4.90;;;16.50;99.90;;;;;;5089782;28;20389;-65
2022/08/08 03:21:16;;;;;;;5.82;5.05;;;16.40;99.90;;;;;;5077278;28;20762;-65
2022/08/08 03:23:41;;;;;;;5.67;4.83;;;16.40;99.90;;;;;;5090607;28;20877;-65
2022/08/08 03:26:07;;;;;;;6.32;4.90;;;16.40;99.90;;;;;;5088691;28;20571;-65
2022/08/08 03:28:55;;;;;;;6.20;5.10;;;16.40;99.90;;;;;;5091606;28;20677;-65
2022/08/08 03:34:08;;;;;;;6.20;5.38;;;16.30;99.90;;;;;;5091862;28;20463;-65
2022/08/08 03:36:39;;;;;;;7.63;5.25;;;16.30;99.90;;;;;;5090793;28;21210;-65
2022/08/08 03:39:05;;;;;;;5.57;5.07;;;16.30;99.90;;;;;;5092105;28;20401;-65
2022/08/08 03:41:32;;;;;;;5.20;4.70;;;16.20;99.90;;;;;;5093707;28;20458;-65
2022/08/08 03:43:58;;;;;;;6.05;4.88;;;16.30;99.90;;;;;;5092614;28;20527;-65
2022/08/08 03:46:24;;;;;;;5.30;4.60;;;16.30;99.90;;;;;;5093201;28;20438;-65
2022/08/08 03:49:00;;;;;;;5.93;4.80;;;16.30;99.90;;;;;;5093318;28;20506;-65
2022/08/08 03:51:26;;;;;;;5.32;4.82;;;16.30;99.90;;;;;;5092053;28;20551;-65
2022/08/08 03:53:53;;;;;;;6.10;4.90;;;16.40;99.90;;;;;;5089347;28;20984;-66
2022/08/08 03:56:20;;;;;;;6.13;5.35;;;16.40;99.90;;;;;;5087792;28;20695;-66
2022/08/08 03:58:50;;;;;;;5.53;4.70;;;16.30;99.90;;;;;;5087543;28;20382;-63
2022/08/08 04:01:16;;;;;;;5.10;4.60;;;16.30;99.90;;;;;;5086556;28;20378;-65
2022/08/08 04:03:48;;;;;;;5.43;4.93;;;16.30;99.90;;;;;;5085248;28;20494;-65
2022/08/08 04:06:14;;;;;;;5.68;5.03;;;16.40;99.90;;;;;;5087537;28;20393;-65
2022/08/08 04:08:40;;;;;;;5.95;4.85;;;16.40;99.90;;;;;;5088228;28;20390;-65
2022/08/08 04:11:07;;;;;;;5.75;4.95;;;16.40;99.90;;;;;;5089693;28;20682;-65
2022/08/08 04:13:33;;;;;;;5.63;4.90;;;16.40;99.90;;;;;;5088595;28;20686;-64
2022/08/08 04:15:59;;;;;;;5.87;4.77;;;16.30;99.90;;;;;;5086924;28;20478;-64
2022/08/08 04:18:24;;;;;;;5.07;4.55;;;16.20;99.90;;;;;;5086227;28;20421;-65
2022/08/08 04:20:50;;;;;;;6.45;4.35;;;16.20;99.90;;;;;;5085531;28;20386;-65
2022/08/08 04:23:16;;;;;;;6.43;4.80;;;16.20;99.90;;;;;;5085876;28;20385;-65
2022/08/08 04:25:41;;;;;;;6.07;4.40;;;16.20;99.90;;;;;;5084829;28;20418;-65
2022/08/08 04:28:08;;;;;;;5.60;4.47;;;16.20;99.90;;;;;;5084471;28;20722;-65
2022/08/08 04:30:34;;;;;;;5.00;4.43;;;16.20;99.90;;;;;;5088508;28;20390;-65
2022/08/08 04:33:00;;;;;;;4.95;4.32;;;16.20;99.90;;;;;;5086378;28;20452;-65
2022/08/08 04:35:25;;;;;;;6.00;4.60;;;16.20;99.90;;;;;;5086315;28;20837;-65
2022/08/08 04:37:52;;;;;;;5.60;5.00;;;16.10;99.90;;;;;;5086632;28;20711;-65
2022/08/08 04:40:19;;;;;;;5.63;5.00;;;16.20;99.90;;;;;;5086388;28;20487;-64
2022/08/08 04:42:46;;;;;;;7.38;5.10;;;16.20;99.90;;;;;;5085943;28;20378;-64
2022/08/08 04:45:11;;;;;;;5.30;4.80;;;16.20;99.90;;;;;;5086588;28;20755;-64
2022/08/08 04:47:37;;;;;;;7.20;5.10;;;16.30;99.90;;;;;;5086906;28;20388;-64
2022/08/08 04:50:03;;;;;;;7.33;4.60;;;16.40;99.90;;;;;;5086753;28;20374;-65
2022/08/08 04:52:29;;;;;;;5.65;4.70;;;16.40;99.90;;;;;;5087193;28;20819;-64
2022/08/08 04:54:55;;;;;;;6.43;4.72;;;16.50;99.90;;;;;;5086719;28;20474;-64
2022/08/08 04:57:20;;;;;;;5.22;4.28;;;16.50;99.90;;;;;;5086800;28;20386;-65
2022/08/08 04:59:46;;;;;;;5.55;4.85;;;16.50;99.90;;;;;;5085617;28;20389;-66
2022/08/08 05:02:12;;;;;;;5.95;5.03;;;16.50;99.90;;;;;;5084138;28;20853;-65
2022/08/08 05:04:37;;;;;;;7.10;4.50;;;16.50;99.90;;;;;;5082582;28;20386;-66
2022/08/08 05:07:03;;;;;;;5.13;4.40;;;16.50;99.90;;;;;;5082642;28;20428;-65
2022/08/08 05:09:29;;;;;;;4.70;4.20;;;16.60;99.90;;;;;;5083464;28;20390;-65
2022/08/08 05:11:55;;;;;;;4.90;4.37;;;16.60;99.90;;;;;;5082691;28;20390;-65
2022/08/08 05:14:22;;;;;;;5.23;4.07;;;16.70;99.90;;;;;;5081655;28;20386;-65
2022/08/08 05:16:47;;;;;;;4.50;4.10;;;16.60;99.90;;;;;;5082237;28;20609;-65
2022/08/08 05:19:13;;;;;;;5.47;3.80;;;16.60;99.90;;;;;;5084498;28;20457;-65
2022/08/08 05:21:40;;;;;;;5.15;4.20;;;16.70;99.90;;;;;;5085232;28;20386;-65
2022/08/08 05:24:06;;;;;;;4.38;3.95;;;16.70;99.90;;;;;;5085338;28;20862;-65
2022/08/08 05:26:32;;;;;;;5.53;4.40;;;16.70;99.90;;;;;;5087638;28;20406;-66
2022/08/08 05:28:57;;;;;;;6.75;4.30;;;16.70;99.90;;;;;;5085442;28;20417;-65
2022/08/08 05:31:23;;;;;;;4.47;3.90;;;16.70;99.90;;;;;;5083760;28;20796;-65
2022/08/08 05:33:49;;;;;;;5.00;3.97;;;16.70;99.90;;;;;;5085144;28;20452;-65
2022/08/08 05:36:16;;;;;;;4.90;3.97;;;16.80;99.90;;;;;;5085101;28;21006;-65
2022/08/08 05:38:46;;;;;;;4.88;4.00;;;16.80;99.90;;;;;;5086460;28;20556;-65
2022/08/08 05:41:16;;;;;;;4.43;4.03;;;16.80;99.90;;;;;;5084407;28;20460;-64
2022/08/08 05:43:45;;;;;;;4.72;3.95;;;16.90;99.90;;;;;;5081808;28;20769;-65
2022/08/08 05:46:11;;;;;;;4.82;4.25;;;16.80;99.90;;;;;;5081368;28;20416;-65
2022/08/08 05:48:37;;;;;;;4.47;4.07;;;16.90;99.90;;;;;;5079725;28;20589;-65
2022/08/08 05:51:03;;;;;;;4.70;3.90;;;16.80;99.90;;;;;;5079558;28;20400;-65
2022/08/08 05:53:29;;;;;;;5.90;4.00;;;16.90;99.90;;;;;;5079705;28;20390;-64
2022/08/08 05:55:57;;;;;;;7.10;3.90;;;16.90;99.90;;;;;;5077907;28;20463;-64
2022/08/08 05:58:33;;;;;;;4.60;3.77;;;16.90;99.90;;;;;;5081087;28;20374;-64
2022/08/08 06:01:00;;;;;;;5.20;4.25;;;16.90;99.90;;;;;;5080556;28;20652;-64
2022/08/08 06:03:27;;;;;;;5.55;3.78;;;16.90;99.90;;;;;;5079852;28;20383;-64
2022/08/08 06:06:05;;;;;;;4.32;3.92;;;17.00;99.90;;;;;;5081186;28;20394;-64
2022/08/08 06:08:36;;;;;;;5.25;4.10;;;17.00;99.90;;;;;;5080887;28;20389;-64
2022/08/08 06:11:03;;;;;;;4.90;4.25;;;17.00;99.90;;;;;;5081111;28;20784;-64
2022/08/08 06:13:29;;;;;;;5.30;4.05;;;17.00;99.90;;;;;;5082527;28;20421;-64
2022/08/08 06:15:56;;;;;;;4.65;4.10;;;17.00;99.90;;;;;;5081521;28;20651;-65
2022/08/08 06:18:24;;;;;;;4.95;4.32;;;17.10;99.90;;;;;;5083290;28;20494;-64
2022/08/08 06:20:55;;;;;;;6.75;4.13;;;17.20;99.90;;;;;;5083005;28;20382;-64
2022/08/08 06:23:21;;;;;;;6.00;4.32;;;17.20;99.90;;;;;;5081214;28;20541;-64
2022/08/08 06:26:01;;;;;;;4.88;4.38;;;17.20;99.90;;;;;;5083244;28;20432;-65
2022/08/08 06:28:41;;;;;;;7.60;4.30;;;17.30;99.90;;;;;;5079832;28;20393;-65
2022/08/08 06:31:09;;;;;;;4.75;4.05;;;17.30;99.90;;;;;;5077986;28;20597;-65
2022/08/08 06:33:39;;;;;;;6.22;4.20;;;17.40;99.90;;;;;;5078808;28;20708;-65
2022/08/08 06:36:07;;;;;;;6.50;4.30;;;17.50;99.90;;;;;;5078552;28;20392;-65
2022/08/08 06:38:36;;;;;;;3.63;3.10;;;17.40;99.90;;;;;;5081240;28;20628;-65
2022/08/08 06:41:05;;;;;;;4.15;3.20;;;17.50;99.90;;;;;;5077854;28;20552;-65
2022/08/08 06:43:35;;;;;;;2.70;2.50;;;17.50;99.90;;;;;;5075836;28;20606;-65
2022/08/08 06:46:02;;;;;;;2.85;2.63;;;17.60;99.90;;;;;;5074104;28;20738;-65
2022/08/08 06:48:28;;;;;;;3.40;2.65;;;17.70;99.90;;;;;;5073497;28;20393;-65
2022/08/08 06:50:54;;;;;;;2.80;2.50;;;17.70;99.90;;;;;;5072359;28;20394;-64
2022/08/08 06:53:21;;;;;;;3.00;2.10;;;17.80;99.90;;;;;;5068336;28;20461;-64
2022/08/08 06:55:47;;;;;;;4.17;2.07;;;17.90;99.90;;;;;;5068058;28;20412;-64
2022/08/08 06:58:13;;;;;;;3.08;1.80;;;17.90;99.90;;;;;;5068255;28;20755;-64
2022/08/08 07:00:40;;;;;;;2.80;1.88;;;18.00;99.90;;;;;;5068008;28;20801;-64
2022/08/08 07:03:12;;;;;;;2.17;1.80;;;18.00;99.90;;;;;;5069879;28;20680;-64
2022/08/08 07:05:40;;;;;;;2.58;1.50;;;18.10;99.90;;;;;;5070791;28;20408;-64
2022/08/08 07:08:25;;;;;;;2.70;1.73;;;18.10;99.90;;;;;;5069637;28;20455;-65
2022/08/08 07:10:55;;;;;;;2.47;1.55;;;18.20;99.90;;;;;;5068223;28;20614;-64
2022/08/08 07:13:31;;;;;;;4.72;1.77;;;18.30;99.90;;;;;;5069795;28;20650;-64
2022/08/08 07:16:12;;;;;;;1.88;1.70;;;18.30;99.90;;;;;;5072189;28;20390;-64
2022/08/08 07:19:01;;;;;;;2.80;1.92;;;18.30;99.90;;;;;;5071712;28;20635;-64
2022/08/08 07:21:33;;;;;;;3.17;2.20;;;18.40;99.90;;;;;;5071211;28;20378;-65
2022/08/08 07:24:08;;;;;;;3.25;1.83;;;18.30;99.90;;;;;;5070089;28;20697;-64
2022/08/08 07:26:38;;;;;;;2.40;1.90;;;18.30;99.90;;;;;;5074464;28;20405;-65
2022/08/08 07:29:04;;;;;;;3.47;1.92;;;18.30;99.90;;;;;;5073831;28;20529;-65
2022/08/08 07:31:30;;;;;;;4.53;2.00;;;18.40;99.90;;;;;;5073214;28;20393;-65
2022/08/08 07:33:57;;;;;;;1.95;1.33;;;18.40;99.90;;;;;;5077619;28;21342;-65
2022/08/08 07:36:24;;;;;;;2.30;1.50;;;18.40;99.90;;;;;;5078031;28;20554;-65
2022/08/08 07:38:51;;;;;;;2.25;1.90;;;18.50;99.90;;;;;;5077738;28;20394;-65
2022/08/08 07:41:20;;;;;;;1.90;1.30;;;18.60;99.90;;;;;;5077702;28;20590;-65
2022/08/08 07:43:48;;;;;;;1.50;1.30;;;18.70;99.90;;;;;;5077764;28;20374;-65
2022/08/08 07:46:14;;;;;;;3.35;2.08;;;18.80;99.90;;;;;;5080772;28;20436;-65
2022/08/08 07:48:39;;;;;;;4.18;2.38;;;18.90;99.90;;;;;;5084779;28;20382;-65
2022/08/08 07:51:08;;;;;;;4.40;2.00;;;18.80;99.90;;;;;;5083244;28;20925;-65
2022/08/08 07:53:43;;;;;;;2.80;1.88;;;18.80;99.90;;;;;;5082670;28;20718;-65
2022/08/08 07:56:12;;;;;;;3.13;1.80;;;18.80;99.90;;;;;;5081241;28;20386;-65
2022/08/08 07:58:41;;;;;;;2.30;1.80;;;18.80;99.90;;;;;;5077210;28;20532;-65
2022/08/08 08:01:14;;;;;;;1.90;1.33;;;19.00;99.90;;;;;;5079510;28;20386;-65
2022/08/08 08:03:49;;;;;;;1.90;1.58;;;19.10;99.90;;;;;;5082135;28;20443;-66
2022/08/08 08:06:18;;;;;;;2.38;1.50;;;19.20;99.90;;;;;;5083432;28;20599;-65
2022/08/08 08:08:44;;;;;;;1.85;1.40;;;19.30;99.90;;;;;;5083427;28;20855;-65
2022/08/08 08:11:14;;;;;;;2.70;2.03;;;19.40;99.90;;;;;;5082267;28;20426;-66
2022/08/08 08:13:42;;;;;;;2.90;2.15;;;19.30;99.90;;;;;;5082379;28;20393;-65
2022/08/08 08:16:20;;;;;;;3.13;1.95;;;19.30;99.90;;;;;;5081260;28;20468;-65
2022/08/08 08:18:54;;;;;;;3.25;1.92;;;19.40;99.90;;;;;;5079240;28;20461;-65
2022/08/08 08:21:21;;;;;;;3.33;2.13;;;19.50;99.90;;;;;;5080488;28;20675;-65
2022/08/08 08:23:46;;;;;;;3.65;2.40;;;19.60;99.90;;;;;;5080782;28;20397;-65
2022/08/08 08:26:12;;;;;;;3.60;2.30;;;19.60;99.90;;;;;;5081928;28;20698;-65
2022/08/08 08:28:39;;;;;;;5.35;2.70;;;19.50;99.90;;;;;;5081383;28;20385;-65
2022/08/08 08:31:05;;;;;;;5.22;2.65;;;19.50;99.90;;;;;;5081574;28;20478;-65
2022/08/08 08:33:32;;;;;;;2.15;1.67;;;19.60;99.90;;;;;;5083301;28;20790;-65
2022/08/08 08:35:59;;;;;;;3.67;2.50;;;19.60;99.90;;;;;;5082794;28;20390;-66
2022/08/08 08:38:24;;;;;;;4.40;2.20;;;19.70;99.90;;;;;;5084609;28;20393;-65
2022/08/08 08:40:50;;;;;;;5.83;1.77;;;19.80;99.90;;;;;;5083585;28;20378;-67
2022/08/08 08:43:17;;;;;;;1.85;1.45;;;19.80;99.90;;;;;;5083357;28;20477;-65
2022/08/08 08:45:43;;;;;;;3.53;2.10;;;19.80;99.90;;;;;;5083739;28;20428;-65
2022/08/08 08:48:09;;;;;;;3.90;2.10;;;19.70;99.90;;;;;;5080157;28;20884;-65
2022/08/08 08:50:36;;;;;;;3.63;2.03;;;19.70;99.90;;;;;;5081612;28;20469;-65
2022/08/08 08:53:06;;;;;;;2.42;1.50;;;19.70;99.90;;;;;;5081590;28;20489;-65
2022/08/08 08:55:36;;;;;;;2.95;1.85;;;19.70;99.90;;;;;;5079859;28;20408;-65
2022/08/08 08:58:02;;;;;;;2.00;1.70;;;19.70;99.90;;;;;;5080748;28;20419;-66
2022/08/08 09:00:28;;;;;;;5.82;2.15;;;19.80;99.90;;;;;;5082235;28;20492;-66
2022/08/08 09:02:57;;;;;;;3.92;2.00;;;19.90;99.90;;;;;;5084606;28;20409;-65
2022/08/08 09:05:25;;;;;;;2.90;1.40;;;20.00;99.90;;;;;;5076250;28;20611;-66
2022/08/08 09:07:55;;;;;;;4.65;2.20;;;20.00;99.90;;;;;;5077705;28;20401;-66
2022/08/08 09:10:22;;;;;;;2.88;1.73;;;20.10;99.90;;;;;;5079111;28;20531;-66
2022/08/08 09:12:49;;;;;;;1.35;1.15;;;20.20;99.90;;;;;;5079714;28;20409;-65
2022/08/08 09:15:15;;;;;;;3.22;1.60;;;20.30;99.90;;;;;;5076473;28;20371;-66
2022/08/08 09:17:41;;;;;;;2.45;1.30;;;20.40;99.90;;;;;;5076615;28;20646;-66
2022/08/08 09:20:09;;;;;;;2.67;1.50;;;20.50;99.90;;;;;;5075459;28;20382;-66
2022/08/08 09:22:35;;;;;;;2.72;1.27;;;20.70;99.90;;;;;;5073695;28;20386;-66
2022/08/08 09:25:03;;;;;;;3.25;1.40;;;20.90;99.90;;;;;;5071102;28;20454;-66
2022/08/08 09:27:29;;;;;;;3.23;1.33;;;20.80;99.90;;;;;;5073708;28;20547;-66
2022/08/08 09:30:10;;;;;;;1.77;1.00;;;20.70;99.90;;;;;;5072919;28;20466;-66
2022/08/08 09:32:52;;;;;;;2.88;1.60;;;20.80;99.90;;;;;;5073360;28;20390;-67
2022/08/08 09:35:27;;;;;;;4.80;2.40;;;20.80;99.90;;;;;;5073938;28;20710;-66
2022/08/08 09:37:59;;;;;;;3.35;1.90;;;20.70;99.90;;;;;;5077115;28;20555;-65
2022/08/08 09:40:26;;;;;;;3.67;1.90;;;20.80;99.90;;;;;;5078312;28;20849;-66
2022/08/08 09:43:22;;;;;;;2.03;1.60;;;20.80;99.90;;;;;;5077962;28;20649;-65
2022/08/08 09:46:02;;;;;;;3.88;2.10;;;20.90;99.90;;;;;;5078433;28;20485;-66
2022/08/08 09:48:33;;;;;;;8.90;2.90;;;21.10;99.90;;;;;;5078287;28;20382;-66
2022/08/08 09:51:01;;;;;;;3.47;1.83;;;21.10;99.90;;;;;;5076063;28;20804;-66
2022/08/08 09:53:40;;;;;;;3.55;2.03;;;21.00;99.90;;;;;;5074177;28;20393;-66
2022/08/08 09:56:08;;;;;;;3.88;2.00;;;20.90;99.90;;;;;;5076876;28;20374;-66
2022/08/08 09:58:40;;;;;;;2.33;1.60;;;21.10;99.90;;;;;;5079593;28;20488;-66
2022/08/08 10:01:09;;;;;;;1.95;1.60;;;21.10;99.90;;;;;;5076057;28;20378;-66
2022/08/08 10:03:36;;;;;;;2.00;1.30;;;21.20;99.90;;;;;;5074419;28;20487;-66
2022/08/08 10:06:17;;;;;;;3.07;1.70;;;21.30;99.90;;;;;;5075794;28;20429;-66
2022/08/08 10:08:48;;;;;;;2.50;1.52;;;21.30;99.90;;;;;;5078613;28;20386;-65
2022/08/08 10:11:19;;;;;;;2.38;1.50;;;21.50;99.90;;;;;;5077798;28;20831;-66
2022/08/08 10:13:58;;;;;;;2.30;1.58;;;21.50;99.90;;;;;;5079202;28;20857;-65
2022/08/08 10:16:35;;;;;;;3.10;1.55;;;21.40;99.90;;;;;;5079820;28;20801;-65
2022/08/08 10:19:05;;;;;;;4.60;2.03;;;21.60;99.90;;;;;;5086498;28;20700;-65
2022/08/08 10:21:35;;;;;;;7.10;1.80;;;21.70;99.90;;;;;;5086677;28;20448;-66
2022/08/08 10:24:04;;;;;;;4.57;1.70;;;21.70;99.90;;;;;;5087588;28;20904;-65
2022/08/08 10:26:33;;;;;;;3.77;1.77;;;21.70;99.90;;;;;;5085799;28;20402;-65
2022/08/08 10:29:09;;;;;;;3.88;1.70;;;21.70;99.90;;;;;;5085304;28;20385;-65
2022/08/08 10:34:23;;;;;;;3.08;1.50;;;21.30;99.90;;;;;;5085689;28;21135;-65
2022/08/08 10:36:50;;;;;;;1.80;1.37;;;21.30;99.90;;;;;;5084732;28;20975;-65
2022/08/08 10:39:18;;;;;;;2.88;1.10;;;21.40;99.90;;;;;;5083086;28;20578;-65
2022/08/08 10:41:53;;;;;;;4.63;1.77;;;21.70;99.90;;;;;;5082522;28;20386;-65
2022/08/08 10:44:32;;;;;;;2.47;1.30;;;21.60;99.90;;;;;;5081405;28;20397;-65
2022/08/08 10:47:11;;;;;;;2.72;1.60;;;21.70;99.90;;;;;;5084662;28;20398;-65
2022/08/08 10:49:39;;;;;;;4.60;1.80;;;22.00;99.90;;;;;;5088495;28;20389;-65
2022/08/08 10:52:05;;;;;;;2.25;1.30;;;21.90;99.90;;;;;;5090259;28;20401;-64
2022/08/08 10:54:31;;;;;;;4.25;1.67;;;22.10;99.90;;;;;;5089088;28;20422;-64
2022/08/08 10:56:58;;;;;;;3.55;1.77;;;22.00;99.90;;;;;;5091662;28;20392;-64
2022/08/08 10:59:25;;;;;;;4.07;1.98;;;21.60;99.90;;;;;;5090918;28;20959;-64
2022/08/08 11:01:51;;;;;;;4.15;1.70;;;21.60;99.90;;;;;;5091597;28;20420;-64
2022/08/08 11:04:17;;;;;;;1.80;1.23;;;21.60;99.90;;;;;;5092046;28;20413;-64
2022/08/08 11:06:43;;;;;;;4.15;2.05;;;21.80;99.90;;;;;;5090546;28;20455;-64
2022/08/08 11:09:10;;;;;;;6.93;2.10;;;22.10;99.90;;;;;;5091378;28;20393;-65
2022/08/08 11:11:44;;;;;;;2.83;1.50;;;22.20;99.90;;;;;;5090666;28;20410;-64
2022/08/08 11:14:12;;;;;;;4.22;1.70;;;22.30;99.90;;;;;;5089019;28;20404;-64
2022/08/08 11:16:43;;;;;;;4.05;1.60;;;22.50;99.90;;;;;;5087780;28;20385;-64
2022/08/08 11:19:10;;;;;;;1.67;1.20;;;22.50;99.90;;;;;;5085771;28;20382;-64
2022/08/08 11:21:40;;;;;;;3.60;1.63;;;22.50;99.90;;;;;;5084709;28;20389;-64
2022/08/08 11:24:08;;;;;;;2.77;1.53;;;22.40;99.90;;;;;;5080176;28;20397;-64
2022/08/08 11:26:37;;;;;;;2.67;1.42;;;22.50;99.90;;;;;;5079560;28;20429;-64
2022/08/08 11:29:04;;;;;;;3.47;1.70;;;22.50;99.90;;;;;;5078516;28;20406;-63
2022/08/08 11:31:46;;;;;;;2.83;1.58;;;22.40;99.90;;;;;;5075884;28;20891;-64
2022/08/08 11:34:12;;;;;;;3.40;1.67;;;22.40;99.90;;;;;;5075868;28;21048;-64
2022/08/08 11:36:38;;;;;;;3.77;1.60;;;22.60;99.90;;;;;;5081155;28;20417;-63
2022/08/08 11:39:06;;;;;;;2.17;1.40;;;22.60;99.90;;;;;;5084286;28;20426;-64
2022/08/08 11:41:34;;;;;;;3.92;1.55;;;22.60;99.90;;;;;;5083691;28;20829;-64
2022/08/08 11:44:00;;;;;;;2.80;1.60;;;22.70;99.90;;;;;;5084841;28;20818;-64
2022/08/08 11:46:27;;;;;;;3.20;1.40;;;22.70;99.90;;;;;;5084021;28;20404;-64
2022/08/08 11:48:54;;;;;;;4.82;2.00;;;22.80;99.90;;;;;;5085107;28;20523;-64
2022/08/08 11:51:23;;;;;;;3.35;1.60;;;22.90;99.90;;;;;;5085669;28;20465;-64
2022/08/08 11:53:50;;;;;;;3.97;1.58;;;22.90;99.90;;;;;;5085614;28;20398;-64
2022/08/08 11:56:20;;;;;;;3.47;1.50;;;22.80;99.90;;;;;;5085408;28;20931;-64
2022/08/08 11:58:47;;;;;;;3.60;1.58;;;22.90;99.90;;;;;;5086627;28;20481;-64
2022/08/08 12:01:13;;;;;;;3.08;1.38;;;22.60;99.90;;;;;;5090432;28;20681;-64
2022/08/08 12:03:45;;;;;;;3.47;1.40;;;22.50;99.90;;;;;;5087738;28;20450;-64
2022/08/08 12:06:15;;;;;;;3.67;1.40;;;22.60;99.90;;;;;;5082383;28;20398;-63
2022/08/08 12:08:41;;;;;;;2.05;1.13;;;22.70;99.90;;;;;;5082868;28;21105;-64
2022/08/08 12:11:12;;;;;;;2.97;1.55;;;22.80;99.90;;;;;;5080985;28;20389;-64
2022/08/08 12:13:39;;;;;;;2.75;1.40;;;22.90;99.90;;;;;;5083907;28;20374;-64
2022/08/08 12:16:14;;;;;;;3.28;1.48;;;23.00;99.90;;;;;;5084938;28;20397;-64
2022/08/08 12:18:50;;;;;;;2.08;1.23;;;23.00;99.90;;;;;;5084444;28;20462;-64
2022/08/08 12:21:26;;;;;;;4.03;1.70;;;23.30;99.90;;;;;;5086901;28;20393;-64
2022/08/08 12:24:06;;;;;;;3.20;1.38;;;23.50;99.90;;;;;;5082681;28;20408;-65
2022/08/08 12:26:41;;;;;;;2.20;1.20;;;23.50;99.90;;;;;;5086405;28;20398;-65
2022/08/08 12:29:31;;;;;;;1.92;1.38;;;24.10;99.90;;;;;;5089614;28;20404;-65
2022/08/08 12:32:10;;;;;;;2.53;1.30;;;25.00;99.90;;;;;;5087588;28;20378;-65
2022/08/08 12:35:01;;;;;;;2.50;1.30;;;25.00;99.90;;;;;;5086819;28;20408;-66
2022/08/08 12:37:30;;;;;;;2.05;1.10;;;25.10;99.90;;;;;;5088056;28;20404;-65
2022/08/08 12:39:59;;;;;;;2.42;1.10;;;25.00;99.90;;;;;;5089480;28;20481;-65
2022/08/08 12:42:26;;;;;;;3.40;1.02;;;24.50;99.90;;;;;;5088116;28;20888;-65
2022/08/08 12:45:02;;;;;;;1.45;0.93;;;24.40;99.90;;;;;;5087212;28;20438;-65
2022/08/08 12:47:27;;;;;;;2.50;1.10;;;24.70;99.90;;;;;;5086806;28;20481;-65
2022/08/08 12:49:54;;;;;;;1.60;1.00;;;24.80;99.90;;;;;;5086118;28;20390;-65
2022/08/08 12:52:23;;;;;;;2.28;1.30;;;25.10;99.90;;;;;;5087565;28;20956;-66
2022/08/08 12:54:59;;;;;;;2.08;1.08;;;25.30;99.90;;;;;;5086779;28;20382;-65
2022/08/08 12:57:27;;;;;;;1.90;0.90;;;25.50;99.90;;;;;;5087082;28;20868;-66
2022/08/08 12:59:54;;;;;;;3.47;1.17;;;25.60;99.90;;;;;;5086459;28;20400;-65
2022/08/08 13:02:27;;;;;;;1.70;0.70;;;26.10;99.90;;;;;;5088607;28;20394;-66
2022/08/08 13:04:55;;;;;;;1.50;0.93;;;26.40;99.90;;;;;;5087734;28;20382;-65
2022/08/08 13:07:38;;;;;;;2.45;1.00;;;26.50;99.90;;;;;;5085569;28;20477;-65
2022/08/08 13:10:14;;;;;;;2.38;1.08;;;26.00;99.90;;;;;;5087072;28;20725;-63
2022/08/08 13:12:41;;;;;;;2.05;1.10;;;25.70;99.90;;;;;;5087301;28;20798;-64
2022/08/08 13:15:10;;;;;;;1.83;1.17;;;25.50;99.90;;;;;;5084049;28;20960;-64
2022/08/08 13:17:37;;;;;;;2.67;1.15;;;25.20;99.90;;;;;;5081766;28;20465;-64
2022/08/08 13:20:10;;;;;;;2.33;1.20;;;24.90;99.90;;;;;;5083619;28;20433;-66
2022/08/08 13:22:35;;;;;;;3.55;1.33;;;24.80;99.90;;;;;;5084077;28;20398;-64
2022/08/08 13:25:03;;;;;;;2.20;1.00;;;24.50;99.90;;;;;;5084630;28;20390;-64
2022/08/08 13:27:30;;;;;;;3.22;1.80;;;24.50;99.90;;;;;;5084035;28;20853;-64
2022/08/08 13:29:58;;;;;;;2.53;1.30;;;24.50;99.90;;;;;;5086004;28;20370;-64
2022/08/08 13:32:28;;;;;;;3.40;1.20;;;24.30;99.90;;;;;;5085092;28;20439;-64